Time;durP1;ratioP1;P1;durP2;ratioP2;P2;SDS_P1;SDS_P2;PMS_P1;PMS_P2;Temp;Humidity;BMP_temperature;BMP_pressure;BME280_temperature;BME280_humidity;BME280_pressure;Samples;Min_cycle;Max_cycle;Signal;HPM_P1;HPM_P2
2022/12/18 00:00:59;;;;;;;12.35;8.05;;;;;;;;;;5122836;28;20031;-67
2022/12/18 00:03:25;;;;;;;13.60;8.02;;;;;;;;;;5117006;28;20510;-68
2022/12/18 00:05:52;;;;;;;15.40;8.73;;;;;;;;;;5121448;28;20253;-68
2022/12/18 00:08:18;;;;;;;15.25;8.35;;;;;;;;;;5122365;28;20342;-68
2022/12/18 00:10:44;;;;;;;13.05;7.63;;;;;;;;;;5120505;28;20051;-68
2022/12/18 00:13:10;;;;;;;12.18;7.10;;;;;;;;;;5120685;28;20024;-68
2022/12/18 00:15:37;;;;;;;11.95;7.03;;;;;;;;;;5122010;28;20373;-69
2022/12/18 00:18:03;;;;;;;11.43;7.10;;;;;;;;;;5121728;28;20125;-68
2022/12/18 00:20:28;;;;;;;13.13;6.90;;;;;;;;;;5122258;28;20023;-67
2022/12/18 00:22:54;;;;;;;11.77;7.05;;;;;;;;;;5122076;28;20362;-68
2022/12/18 00:25:20;;;;;;;12.45;7.25;;;;;;;;;;5121254;28;20024;-69
2022/12/18 00:27:45;;;;;;;10.30;6.72;;;;;;;;;;5120694;28;20031;-68
2022/12/18 00:30:11;;;;;;;12.35;6.70;;;;;;;;;;5121017;28;20038;-68
2022/12/18 00:32:36;;;;;;;10.48;6.85;;;;;;;;;;5103173;28;20034;-67
2022/12/18 00:35:03;;;;;;;12.70;7.40;;;;;;;;;;5121580;28;20027;-67
2022/12/18 00:37:28;;;;;;;11.70;7.03;;;;;;;;;;5103400;28;20034;-67
2022/12/18 00:39:54;;;;;;;12.45;7.25;;;;;;;;;;5121278;28;20016;-67
2022/12/18 00:45:03;;;;;;;9.95;6.63;;;;;;;;;;5122287;28;20031;-68
2022/12/18 00:47:29;;;;;;;11.82;6.47;;;;;;;;;;5121933;28;20330;-68
2022/12/18 00:49:54;;;;;;;12.65;7.00;;;;;;;;;;5122258;28;20019;-67
2022/12/18 00:52:20;;;;;;;11.07;6.68;;;;;;;;;;5122111;28;20357;-67
2022/12/18 00:54:45;;;;;;;11.18;6.78;;;;;;;;;;5122162;28;20028;-68
2022/12/18 00:57:10;;;;;;;12.57;6.40;;;;;;;;;;5122048;28;20234;-68
2022/12/18 00:59:36;;;;;;;10.05;6.47;;;;;;;;;;5121394;28;20031;-68
2022/12/18 01:02:01;;;;;;;11.48;6.75;;;;;;;;;;5120979;28;20068;-68
2022/12/18 01:04:26;;;;;;;10.82;6.45;;;;;;;;;;5120693;28;20031;-68
2022/12/18 01:06:52;;;;;;;11.63;6.68;;;;;;;;;;5120568;28;20253;-69
2022/12/18 01:09:17;;;;;;;9.48;6.15;;;;;;;;;;5120696;28;20052;-68
2022/12/18 01:11:42;;;;;;;10.65;6.30;;;;;;;;;;5121675;28;20367;-68
2022/12/18 01:14:08;;;;;;;11.25;6.50;;;;;;;;;;5122049;28;20035;-69
2022/12/18 01:16:34;;;;;;;11.55;6.53;;;;;;;;;;5121972;28;20311;-69
2022/12/18 01:18:59;;;;;;;9.70;6.38;;;;;;;;;;5122005;28;20200;-68
2022/12/18 01:21:25;;;;;;;11.10;6.60;;;;;;;;;;5122009;28;20245;-68
2022/12/18 01:23:55;;;;;;;10.50;6.38;;;;;;;;;;5121874;28;20223;-69
2022/12/18 01:26:20;;;;;;;11.88;6.55;;;;;;;;;;5121935;28;20321;-68
2022/12/18 01:28:46;;;;;;;10.32;6.30;;;;;;;;;;5121627;28;20322;-69
2022/12/18 01:31:22;;;;;;;10.52;6.40;;;;;;;;;;5121095;28;20055;-71
2022/12/18 01:33:48;;;;;;;10.45;6.72;;;;;;;;;;5121061;28;20031;-69
2022/12/18 01:36:21;;;;;;;11.73;6.43;;;;;;;;;;5120599;28;20059;-68
2022/12/18 01:38:47;;;;;;;10.50;6.60;;;;;;;;;;5119587;28;20345;-69
2022/12/18 01:41:14;;;;;;;11.55;6.68;;;;;;;;;;5122933;28;20243;-69
2022/12/18 01:43:47;;;;;;;11.60;6.72;;;;;;;;;;5123870;28;20077;-71
2022/12/18 01:46:13;;;;;;;10.80;6.15;;;;;;;;;;5123503;28;20051;-71
2022/12/18 01:48:40;;;;;;;9.70;6.10;;;;;;;;;;5124729;28;20031;-70
2022/12/18 01:51:09;;;;;;;11.30;6.80;;;;;;;;;;5123736;28;20020;-69
2022/12/18 01:53:35;;;;;;;10.40;6.72;;;;;;;;;;5124094;28;20035;-70
2022/12/18 01:56:01;;;;;;;11.07;6.93;;;;;;;;;;5106317;28;20050;-70
2022/12/18 01:58:59;;;;;;;11.82;7.03;;;;;;;;;;5125129;28;20023;-69
2022/12/18 02:01:25;;;;;;;11.82;6.93;;;;;;;;;;5124922;28;20042;-69
2022/12/18 02:03:51;;;;;;;10.43;6.80;;;;;;;;;;5125283;28;20275;-70
2022/12/18 02:06:26;;;;;;;13.98;7.10;;;;;;;;;;5125201;28;20032;-71
2022/12/18 02:09:16;;;;;;;12.98;7.15;;;;;;;;;;5124439;28;20083;-71
2022/12/18 02:11:59;;;;;;;12.50;7.03;;;;;;;;;;5123544;28;20042;-70
2022/12/18 02:14:27;;;;;;;13.07;6.85;;;;;;;;;;5124251;28;20068;-68
2022/12/18 02:16:56;;;;;;;10.77;6.93;;;;;;;;;;5123571;28;20304;-69
2022/12/18 02:19:45;;;;;;;13.02;7.28;;;;;;;;;;5123199;28;20038;-68
2022/12/18 02:22:34;;;;;;;10.80;6.60;;;;;;;;;;5123185;28;20041;-68
2022/12/18 02:25:25;;;;;;;11.73;6.80;;;;;;;;;;5124732;28;20035;-68
2022/12/18 02:27:53;;;;;;;12.63;7.30;;;;;;;;;;5124455;28;20031;-67
2022/12/18 02:30:19;;;;;;;13.00;7.20;;;;;;;;;;5124824;28;20103;-68
2022/12/18 02:32:51;;;;;;;12.48;7.25;;;;;;;;;;5124322;28;20035;-67
2022/12/18 02:35:21;;;;;;;12.65;7.47;;;;;;;;;;5124304;28;20027;-67
2022/12/18 02:37:47;;;;;;;11.45;7.13;;;;;;;;;;5118564;28;20035;-67
2022/12/18 02:40:15;;;;;;;11.45;6.90;;;;;;;;;;5124549;28;20035;-67
2022/12/18 02:42:40;;;;;;;13.75;7.35;;;;;;;;;;5124317;28;20323;-69
2022/12/18 02:45:06;;;;;;;13.25;7.85;;;;;;;;;;5124698;28;20042;-69
2022/12/18 02:47:37;;;;;;;11.40;7.38;;;;;;;;;;5124039;28;20216;-70
2022/12/18 02:50:35;;;;;;;11.88;6.97;;;;;;;;;;5124431;28;20115;-69
2022/12/18 02:53:12;;;;;;;11.27;7.18;;;;;;;;;;5104540;28;20035;-70
2022/12/18 02:56:03;;;;;;;12.95;7.30;;;;;;;;;;5122260;28;20076;-70
2022/12/18 02:58:58;;;;;;;12.45;7.28;;;;;;;;;;5104492;28;20032;-69
2022/12/18 03:01:26;;;;;;;11.93;7.25;;;;;;;;;;5123843;28;20016;-70
2022/12/18 03:03:58;;;;;;;12.45;7.20;;;;;;;;;;5123921;28;20207;-70
2022/12/18 03:06:48;;;;;;;12.40;7.22;;;;;;;;;;5124218;28;20031;-70
2022/12/18 03:09:31;;;;;;;16.05;7.63;;;;;;;;;;5110130;28;20035;-70
2022/12/18 03:12:23;;;;;;;12.75;7.60;;;;;;;;;;5123688;28;20039;-69
2022/12/18 03:15:07;;;;;;;14.40;7.80;;;;;;;;;;5123946;28;20023;-70
2022/12/18 03:17:33;;;;;;;12.52;7.40;;;;;;;;;;5123581;28;20023;-69
2022/12/18 03:20:07;;;;;;;13.02;7.70;;;;;;;;;;5123578;28;20319;-69
2022/12/18 03:22:35;;;;;;;12.52;7.88;;;;;;;;;;5123586;28;20027;-70
2022/12/18 03:25:04;;;;;;;11.75;7.57;;;;;;;;;;5123778;28;20208;-70
2022/12/18 03:27:31;;;;;;;13.95;8.13;;;;;;;;;;5105185;28;20043;-70
2022/12/18 03:30:07;;;;;;;16.83;8.75;;;;;;;;;;5122495;28;20039;-71
2022/12/18 03:32:41;;;;;;;14.25;7.80;;;;;;;;;;5123170;28;20031;-70
2022/12/18 03:35:10;;;;;;;13.13;8.13;;;;;;;;;;5122908;28;20057;-70
2022/12/18 03:37:35;;;;;;;13.68;7.35;;;;;;;;;;5121692;28;20655;-72
2022/12/18 03:40:01;;;;;;;11.40;6.78;;;;;;;;;;5121664;28;20031;-71
2022/12/18 03:42:43;;;;;;;11.88;7.07;;;;;;;;;;5122108;28;20212;-70
2022/12/18 03:45:19;;;;;;;9.95;6.18;;;;;;;;;;5122299;28;20031;-71
2022/12/18 03:48:02;;;;;;;12.20;6.72;;;;;;;;;;5103048;28;20112;-70
2022/12/18 03:50:55;;;;;;;12.60;6.35;;;;;;;;;;5103842;28;20051;-72
2022/12/18 03:53:33;;;;;;;10.98;6.38;;;;;;;;;;5121932;28;20023;-71
2022/12/18 03:56:01;;;;;;;11.85;6.57;;;;;;;;;;5122045;28;20016;-72
2022/12/18 03:58:28;;;;;;;12.70;6.93;;;;;;;;;;5121432;28;20035;-71
2022/12/18 04:00:59;;;;;;;11.90;7.15;;;;;;;;;;5122209;28;20019;-72
2022/12/18 04:03:25;;;;;;;;;;;;;;;;;;5122401;28;20031;-70
2022/12/18 04:05:54;;;;;;;12.65;7.18;;;;;;;;;;5122540;28;19904;-71
2022/12/18 04:08:21;;;;;;;12.18;6.70;;;;;;;;;;5122468;28;20023;-68
2022/12/18 04:10:47;;;;;;;13.57;7.47;;;;;;;;;;5122929;28;20054;-70
2022/12/18 04:13:12;;;;;;;11.77;7.43;;;;;;;;;;5122129;28;20024;-71
2022/12/18 04:15:38;;;;;;;10.95;7.05;;;;;;;;;;5103456;28;20027;-71
2022/12/18 04:18:04;;;;;;;11.50;7.50;;;;;;;;;;5122085;28;20035;-72
2022/12/18 04:20:29;;;;;;;12.13;7.22;;;;;;;;;;5122117;28;20035;-72
2022/12/18 04:22:55;;;;;;;11.23;6.80;;;;;;;;;;5122395;28;20089;-72
2022/12/18 04:25:20;;;;;;;13.00;7.15;;;;;;;;;;5122357;28;20034;-72
2022/12/18 04:27:46;;;;;;;11.77;6.80;;;;;;;;;;5122165;28;20316;-72
2022/12/18 04:30:11;;;;;;;10.95;6.65;;;;;;;;;;5121186;28;20088;-72
2022/12/18 04:32:37;;;;;;;10.38;6.35;;;;;;;;;;5121834;28;20307;-70
2022/12/18 04:35:04;;;;;;;10.90;6.60;;;;;;;;;;5122387;28;20019;-71
2022/12/18 04:37:29;;;;;;;10.98;6.70;;;;;;;;;;5122450;28;20027;-70
2022/12/18 04:39:55;;;;;;;8.88;6.10;;;;;;;;;;5121421;28;20030;-69
2022/12/18 04:42:20;;;;;;;9.13;6.10;;;;;;;;;;5120282;28;20023;-70
2022/12/18 04:44:46;;;;;;;9.27;5.82;;;;;;;;;;5114902;28;20096;-71
2022/12/18 04:47:12;;;;;;;11.52;6.13;;;;;;;;;;5115166;28;20040;-71
2022/12/18 04:49:37;;;;;;;10.52;6.00;;;;;;;;;;5099648;28;20391;-70
2022/12/18 04:52:03;;;;;;;10.80;6.55;;;;;;;;;;5090395;28;20468;-68
2022/12/18 04:54:28;;;;;;;10.40;6.18;;;;;;;;;;5090386;28;20043;-71
2022/12/18 04:56:54;;;;;;;10.65;6.22;;;;;;;;;;5090644;28;20108;-68
2022/12/18 04:59:19;;;;;;;10.00;5.88;;;;;;;;;;5097438;28;20024;-70
2022/12/18 05:01:45;;;;;;;9.85;6.15;;;;;;;;;;5100444;28;20207;-67
2022/12/18 05:04:11;;;;;;;10.25;5.90;;;;;;;;;;5100269;28;20020;-70
2022/12/18 05:06:36;;;;;;;11.70;6.57;;;;;;;;;;5100082;28;20104;-70
2022/12/18 05:09:01;;;;;;;10.15;5.65;;;;;;;;;;5100313;28;20020;-68
2022/12/18 05:11:27;;;;;;;10.18;5.93;;;;;;;;;;5100504;28;20024;-70
2022/12/18 05:13:52;;;;;;;9.57;5.88;;;;;;;;;;5101060;28;20054;-71
2022/12/18 05:16:17;;;;;;;10.60;6.20;;;;;;;;;;5103725;28;20024;-68
2022/12/18 05:18:43;;;;;;;9.57;6.10;;;;;;;;;;5103597;28;20024;-71
2022/12/18 05:21:08;;;;;;;10.93;6.28;;;;;;;;;;5104513;28;20394;-70
2022/12/18 05:23:35;;;;;;;10.43;6.40;;;;;;;;;;5104994;28;20036;-69
2022/12/18 05:26:03;;;;;;;8.90;6.03;;;;;;;;;;5086921;28;20039;-70
2022/12/18 05:28:31;;;;;;;9.73;5.78;;;;;;;;;;5086209;28;20036;-70
2022/12/18 05:31:02;;;;;;;9.30;5.55;;;;;;;;;;5103909;28;20038;-70
2022/12/18 05:33:28;;;;;;;;;;;;;;;;;;5105842;28;20054;-67
2022/12/18 05:35:57;;;;;;;9.27;5.50;;;;;;;;;;5105081;28;19970;-70
2022/12/18 05:38:24;;;;;;;8.95;5.40;;;;;;;;;;5105388;28;20031;-69
2022/12/18 05:40:50;;;;;;;9.60;5.43;;;;;;;;;;5105331;28;20246;-70
2022/12/18 05:43:16;;;;;;;8.63;5.35;;;;;;;;;;5105297;28;20032;-70
2022/12/18 05:45:42;;;;;;;9.30;5.60;;;;;;;;;;5104649;28;20028;-69
2022/12/18 05:48:08;;;;;;;9.50;5.65;;;;;;;;;;5109708;28;20051;-70
2022/12/18 05:50:38;;;;;;;8.82;5.55;;;;;;;;;;5123721;28;20041;-72
2022/12/18 05:53:05;;;;;;;9.00;5.40;;;;;;;;;;5106967;28;20030;-71
2022/12/18 05:55:35;;;;;;;10.40;5.93;;;;;;;;;;5125252;28;20027;-70
2022/12/18 05:58:00;;;;;;;9.02;5.78;;;;;;;;;;5123347;28;20046;-67
2022/12/18 06:00:26;;;;;;;8.30;5.40;;;;;;;;;;5123315;28;20220;-71
2022/12/18 06:02:51;;;;;;;9.88;5.53;;;;;;;;;;5120582;28;20219;-70
2022/12/18 06:05:17;;;;;;;9.68;5.43;;;;;;;;;;5125043;28;20020;-69
2022/12/18 06:07:42;;;;;;;8.90;5.55;;;;;;;;;;5125105;28;20261;-70
2022/12/18 06:10:08;;;;;;;10.48;5.80;;;;;;;;;;5125147;28;20019;-70
2022/12/18 06:12:33;;;;;;;10.68;6.22;;;;;;;;;;5124988;28;20060;-70
2022/12/18 06:14:59;;;;;;;9.73;5.40;;;;;;;;;;5119881;28;20032;-69
2022/12/18 06:17:29;;;;;;;9.70;5.88;;;;;;;;;;5125125;28;20037;-69
2022/12/18 06:19:55;;;;;;;9.43;5.80;;;;;;;;;;5106518;28;20456;-70
2022/12/18 06:22:20;;;;;;;8.80;5.55;;;;;;;;;;5125168;28;20027;-71
2022/12/18 06:24:45;;;;;;;10.35;5.63;;;;;;;;;;5118214;28;20406;-72
2022/12/18 06:27:11;;;;;;;11.70;6.03;;;;;;;;;;5116855;28;20030;-69
2022/12/18 06:29:36;;;;;;;13.52;5.88;;;;;;;;;;5123370;28;20080;-69
2022/12/18 06:32:02;;;;;;;8.27;5.18;;;;;;;;;;5122336;28;20027;-70
2022/12/18 06:34:27;;;;;;;8.68;5.50;;;;;;;;;;5122058;28;20034;-70
2022/12/18 06:36:52;;;;;;;8.68;5.22;;;;;;;;;;5113790;28;20066;-70
2022/12/18 06:39:18;;;;;;;8.18;5.50;;;;;;;;;;5123946;28;20196;-70
2022/12/18 06:41:43;;;;;;;8.82;5.38;;;;;;;;;;5124138;28;20055;-70
2022/12/18 06:44:08;;;;;;;9.77;5.65;;;;;;;;;;5124331;28;20035;-70
2022/12/18 06:46:34;;;;;;;9.98;5.70;;;;;;;;;;5123986;28;20055;-70
2022/12/18 06:48:59;;;;;;;10.70;5.10;;;;;;;;;;5124378;28;20038;-69
2022/12/18 06:51:25;;;;;;;8.77;5.60;;;;;;;;;;5124302;28;20049;-70
2022/12/18 06:53:50;;;;;;;8.27;5.43;;;;;;;;;;5124381;28;20030;-70
2022/12/18 06:56:16;;;;;;;8.23;5.25;;;;;;;;;;5124349;28;20027;-69
2022/12/18 06:58:41;;;;;;;9.85;5.32;;;;;;;;;;5124268;28;20031;-68
2022/12/18 07:01:10;;;;;;;9.80;5.70;;;;;;;;;;5123952;28;20073;-69
2022/12/18 07:03:36;;;;;;;8.75;5.30;;;;;;;;;;5105950;28;20023;-70
2022/12/18 07:06:02;;;;;;;8.85;5.60;;;;;;;;;;5124070;28;20031;-69
2022/12/18 07:08:30;;;;;;;7.45;4.97;;;;;;;;;;5124025;28;20043;-69
2022/12/18 07:10:56;;;;;;;10.05;5.38;;;;;;;;;;5122406;28;20034;-69
2022/12/18 07:13:21;;;;;;;9.80;5.57;;;;;;;;;;5120014;28;20111;-69
2022/12/18 07:15:46;;;;;;;7.90;5.13;;;;;;;;;;5115757;28;20053;-70
2022/12/18 07:18:12;;;;;;;7.85;4.85;;;;;;;;;;5112447;28;20031;-69
2022/12/18 07:20:37;;;;;;;9.60;5.57;;;;;;;;;;5116099;28;20065;-69
2022/12/18 07:23:04;;;;;;;11.85;5.78;;;;;;;;;;5115800;28;20024;-70
2022/12/18 07:25:33;;;;;;;10.30;5.90;;;;;;;;;;5112214;28;20039;-71
2022/12/18 07:27:58;;;;;;;10.63;6.30;;;;;;;;;;5106140;28;20481;-70
2022/12/18 07:30:24;;;;;;;10.23;6.10;;;;;;;;;;5105486;28;20023;-69
2022/12/18 07:32:49;;;;;;;9.43;5.32;;;;;;;;;;5117200;28;20094;-69
2022/12/18 07:35:15;;;;;;;11.45;6.32;;;;;;;;;;5120719;28;20314;-69
2022/12/18 07:37:40;;;;;;;12.38;6.28;;;;;;;;;;5118739;27;20047;-69
2022/12/18 07:40:06;;;;;;;11.10;6.07;;;;;;;;;;5101440;28;20038;-70
2022/12/18 07:42:32;;;;;;;11.60;6.15;;;;;;;;;;5101451;28;20035;-70
2022/12/18 07:44:58;;;;;;;11.23;6.20;;;;;;;;;;5117773;27;20027;-70
2022/12/18 07:47:24;;;;;;;12.55;6.68;;;;;;;;;;5113079;28;20054;-70
2022/12/18 07:49:49;;;;;;;11.80;6.32;;;;;;;;;;5111451;28;20032;-70
2022/12/18 07:52:15;;;;;;;10.25;6.10;;;;;;;;;;5111645;28;20027;-69
2022/12/18 07:54:40;;;;;;;10.13;5.68;;;;;;;;;;5112047;28;20695;-70
2022/12/18 07:57:06;;;;;;;8.93;5.18;;;;;;;;;;5112624;28;20059;-69
2022/12/18 07:59:32;;;;;;;12.48;5.80;;;;;;;;;;5113973;28;20031;-68
2022/12/18 08:01:58;;;;;;;11.40;5.82;;;;;;;;;;5112197;27;20026;-70
2022/12/18 08:04:24;;;;;;;11.77;5.95;;;;;;;;;;5112933;28;20023;-70
2022/12/18 08:06:49;;;;;;;10.05;5.47;;;;;;;;;;5113954;28;20107;-70
2022/12/18 08:09:14;;;;;;;10.25;5.53;;;;;;;;;;5116033;28;20031;-70
2022/12/18 08:11:40;;;;;;;16.50;5.78;;;;;;;;;;5113443;28;20038;-72
2022/12/18 08:14:05;;;;;;;10.38;5.45;;;;;;;;;;5093646;28;20031;-71
2022/12/18 08:16:30;;;;;;;10.93;5.80;;;;;;;;;;5112518;28;20099;-72
2022/12/18 08:18:56;;;;;;;10.07;5.50;;;;;;;;;;5115115;28;20483;-69
2022/12/18 08:21:27;;;;;;;9.32;5.70;;;;;;;;;;5121831;28;20066;-69
2022/12/18 08:23:55;;;;;;;10.88;5.13;;;;;;;;;;5111233;28;20069;-69
2022/12/18 08:26:21;;;;;;;10.07;5.50;;;;;;;;;;5111670;28;20031;-71
2022/12/18 08:28:46;;;;;;;10.45;5.05;;;;;;;;;;5109310;28;20027;-70
2022/12/18 08:31:12;;;;;;;8.18;5.05;;;;;;;;;;5110772;28;20034;-70
2022/12/18 08:33:38;;;;;;;10.93;5.53;;;;;;;;;;5114616;28;20464;-69
2022/12/18 08:36:04;;;;;;;8.52;5.07;;;;;;;;;;5117408;28;20090;-69
2022/12/18 08:38:31;;;;;;;12.85;5.00;;;;;;;;;;5112937;28;20638;-69
2022/12/18 08:41:04;;;;;;;9.95;4.65;;;;;;;;;;5118686;28;20380;-68
2022/12/18 08:46:14;;;;;;;9.82;5.00;;;;;;;;;;5114142;28;20411;-69
2022/12/18 08:48:39;;;;;;;9.05;4.97;;;;;;;;;;5117713;28;20027;-70
2022/12/18 08:51:05;;;;;;;9.85;4.55;;;;;;;;;;5118292;28;20039;-70
2022/12/18 08:53:30;;;;;;;7.70;4.43;;;;;;;;;;5117535;28;20035;-71
2022/12/18 08:55:56;;;;;;;8.75;4.60;;;;;;;;;;5115713;28;20028;-70
2022/12/18 08:58:22;;;;;;;9.77;4.93;;;;;;;;;;5118244;28;20035;-70
2022/12/18 09:00:48;;;;;;;9.73;4.57;;;;;;;;;;5113880;28;20046;-70
2022/12/18 09:03:18;;;;;;;9.05;4.75;;;;;;;;;;5118493;28;20457;-69
2022/12/18 09:05:46;;;;;;;8.70;4.72;;;;;;;;;;5119869;28;20094;-70
2022/12/18 09:08:12;;;;;;;8.43;5.18;;;;;;;;;;5120061;28;20501;-70
2022/12/18 09:10:44;;;;;;;7.90;4.60;;;;;;;;;;5111036;28;20024;-68
2022/12/18 09:13:11;;;;;;;9.35;4.38;;;;;;;;;;5104838;28;20075;-66
2022/12/18 09:15:43;;;;;;;11.20;4.07;;;;;;;;;;5111561;28;20372;-68
2022/12/18 09:18:09;;;;;;;6.93;4.00;;;;;;;;;;5113494;28;20316;-70
2022/12/18 09:20:36;;;;;;;8.45;4.43;;;;;;;;;;5116250;28;20031;-69
2022/12/18 09:23:02;;;;;;;6.85;4.03;;;;;;;;;;5120674;28;20054;-69
2022/12/18 09:25:32;;;;;;;8.80;4.40;;;;;;;;;;5099522;28;20024;-69
2022/12/18 09:28:14;;;;;;;9.82;4.63;;;;;;;;;;5120160;28;20028;-69
2022/12/18 09:30:41;;;;;;;9.02;4.03;;;;;;;;;;5119992;28;20027;-69
2022/12/18 09:33:07;;;;;;;6.85;3.90;;;;;;;;;;5120748;28;20064;-69
2022/12/18 09:35:35;;;;;;;6.97;3.92;;;;;;;;;;5099517;28;20023;-70
2022/12/18 09:38:01;;;;;;;10.75;4.75;;;;;;;;;;5110831;28;20088;-69
2022/12/18 09:40:32;;;;;;;7.32;4.50;;;;;;;;;;5120693;28;20023;-70
2022/12/18 09:43:00;;;;;;;7.30;4.00;;;;;;;;;;5120293;28;20311;-69
2022/12/18 09:45:26;;;;;;;8.82;4.03;;;;;;;;;;5119432;28;20107;-66
2022/12/18 09:47:54;;;;;;;6.63;3.70;;;;;;;;;;5118597;28;20049;-70
2022/12/18 09:50:33;;;;;;;7.28;3.90;;;;;;;;;;5118993;28;20057;-73
2022/12/18 09:53:05;;;;;;;5.55;3.45;;;;;;;;;;5119950;28;20075;-69
2022/12/18 09:55:35;;;;;;;7.60;3.67;;;;;;;;;;5120419;28;20016;-69
2022/12/18 09:58:07;;;;;;;5.77;3.10;;;;;;;;;;5119770;28;20137;-74
2022/12/18 10:00:32;;;;;;;7.15;3.28;;;;;;;;;;5102139;28;20261;-71
2022/12/18 10:03:09;;;;;;;7.18;3.50;;;;;;;;;;5121787;28;20058;-74
2022/12/18 10:05:47;;;;;;;6.45;3.15;;;;;;;;;;5123303;28;20129;-72
2022/12/18 10:08:33;;;;;;;5.28;3.10;;;;;;;;;;5111400;28;20093;-67
2022/12/18 10:11:17;;;;;;;6.10;3.22;;;;;;;;;;5111397;28;20111;-66
2022/12/18 10:14:04;;;;;;;6.28;3.10;;;;;;;;;;5097180;28;20046;-66
2022/12/18 10:16:51;;;;;;;6.15;3.20;;;;;;;;;;5121163;28;20035;-66
2022/12/18 10:19:34;;;;;;;5.78;3.20;;;;;;;;;;5123951;28;20030;-66
2022/12/18 10:22:20;;;;;;;5.13;2.97;;;;;;;;;;5123547;28;20024;-66
2022/12/18 10:25:01;;;;;;;6.97;2.85;;;;;;;;;;5107040;28;20026;-66
2022/12/18 10:27:28;;;;;;;7.43;3.13;;;;;;;;;;5118098;28;20039;-70
2022/12/18 10:29:54;;;;;;;4.88;2.70;;;;;;;;;;5123586;28;20036;-69
2022/12/18 10:32:30;;;;;;;3.70;2.60;;;;;;;;;;5123313;28;20062;-68
2022/12/18 10:34:58;;;;;;;5.45;2.70;;;;;;;;;;5114581;28;20039;-66
2022/12/18 10:37:26;;;;;;;5.40;2.78;;;;;;;;;;5122379;28;20043;-68
2022/12/18 10:40:14;;;;;;;4.55;2.67;;;;;;;;;;5123367;28;20069;-65
2022/12/18 10:42:41;;;;;;;6.15;2.50;;;;;;;;;;5122653;28;20022;-66
2022/12/18 10:45:16;;;;;;;4.95;2.80;;;;;;;;;;5123147;28;20027;-66
2022/12/18 10:47:48;;;;;;;4.00;2.58;;;;;;;;;;5110786;28;20187;-69
2022/12/18 10:50:35;;;;;;;4.32;2.70;;;;;;;;;;5108947;28;20479;-67
2022/12/18 10:53:03;;;;;;;4.13;2.42;;;;;;;;;;5110883;28;20020;-67
2022/12/18 10:55:35;;;;;;;5.07;2.50;;;;;;;;;;5109852;28;20039;-69
2022/12/18 10:58:24;;;;;;;5.28;2.33;;;;;;;;;;5109208;28;20387;-68
2022/12/18 11:01:16;;;;;;;4.05;2.30;;;;;;;;;;5109723;28;20214;-68
2022/12/18 11:03:42;;;;;;;4.82;2.50;;;;;;;;;;5105704;28;20059;-69
2022/12/18 11:06:11;;;;;;;4.68;2.40;;;;;;;;;;5091384;28;20350;-66
2022/12/18 11:08:37;;;;;;;5.75;2.45;;;;;;;;;;5110466;28;20475;-69
2022/12/18 11:11:07;;;;;;;5.40;2.67;;;;;;;;;;5111413;28;20055;-69
2022/12/18 11:13:32;;;;;;;4.93;2.70;;;;;;;;;;5110692;28;20019;-69
2022/12/18 11:15:59;;;;;;;4.13;2.40;;;;;;;;;;5109027;28;20399;-70
2022/12/18 11:18:35;;;;;;;4.55;2.33;;;;;;;;;;5111238;28;20075;-69
2022/12/18 11:21:09;;;;;;;4.53;2.55;;;;;;;;;;5111269;28;20061;-69
2022/12/18 11:23:36;;;;;;;4.95;2.63;;;;;;;;;;5110864;28;20546;-69
2022/12/18 11:26:03;;;;;;;6.32;2.92;;;;;;;;;;5110908;28;20031;-69
2022/12/18 11:28:37;;;;;;;5.32;2.53;;;;;;;;;;5110750;28;20035;-69
2022/12/18 11:31:15;;;;;;;5.13;2.38;;;;;;;;;;5113259;28;20020;-69
2022/12/18 11:33:44;;;;;;;5.30;2.38;;;;;;;;;;5110946;28;20035;-69
2022/12/18 11:36:10;;;;;;;4.13;2.50;;;;;;;;;;5110960;28;20059;-68
2022/12/18 11:38:39;;;;;;;4.88;2.55;;;;;;;;;;5110925;28;20141;-68
2022/12/18 11:44:26;;;;;;;5.25;2.53;;;;;;;;;;5110361;28;20030;-68
2022/12/18 11:46:56;;;;;;;6.50;2.20;;;;;;;;;;5110778;28;20046;-69
2022/12/18 11:49:35;;;;;;;3.90;2.42;;;;;;;;;;5110615;28;20031;-68
2022/12/18 11:52:22;;;;;;;4.05;2.30;;;;;;;;;;5110757;28;20035;-69
2022/12/18 11:54:55;;;;;;;4.15;2.15;;;;;;;;;;5110471;28;20111;-67
2022/12/18 11:57:34;;;;;;;4.20;2.50;;;;;;;;;;5110350;28;20073;-69
2022/12/18 12:00:15;;;;;;;6.03;2.58;;;;;;;;;;5110366;28;20161;-69
2022/12/18 12:02:52;;;;;;;5.05;2.60;;;;;;;;;;5110256;28;20027;-69
2022/12/18 12:05:41;;;;;;;4.70;2.72;;;;;;;;;;5110212;28;20057;-69
2022/12/18 12:08:16;;;;;;;7.10;2.90;;;;;;;;;;5110739;28;20032;-69
2022/12/18 12:10:56;;;;;;;7.57;2.88;;;;;;;;;;5110758;28;20533;-69
2022/12/18 12:13:53;;;;;;;6.13;2.95;;;;;;;;;;5109807;28;20035;-68
2022/12/18 12:16:45;;;;;;;5.18;2.70;;;;;;;;;;5110303;28;20511;-69
2022/12/18 12:19:22;;;;;;;7.93;2.67;;;;;;;;;;5091568;28;20042;-69
2022/12/18 12:22:13;;;;;;;5.63;2.85;;;;;;;;;;5110138;28;20424;-68
2022/12/18 12:24:52;;;;;;;5.47;3.50;;;;;;;;;;5109472;28;20034;-69
2022/12/18 12:28:01;;;;;;;5.32;2.80;;;;;;;;;;5109761;28;20133;-66
2022/12/18 12:30:27;;;;;;;6.22;3.20;;;;;;;;;;5061503;28;20027;-68
2022/12/18 12:33:01;;;;;;;4.57;3.03;;;;;;;;;;5109883;28;20536;-69
2022/12/18 12:35:57;;;;;;;4.57;2.75;;;;;;;;;;5109846;28;20028;-69
2022/12/18 12:38:31;;;;;;;6.15;2.80;;;;;;;;;;5091418;28;20071;-68
2022/12/18 12:41:02;;;;;;;7.78;3.20;;;;;;;;;;5109655;28;20055;-68
2022/12/18 12:43:44;;;;;;;4.97;2.80;;;;;;;;;;5109609;28;20031;-69
2022/12/18 12:46:11;;;;;;;5.72;3.00;;;;;;;;;;5110136;28;20051;-68
2022/12/18 12:48:47;;;;;;;7.35;2.80;;;;;;;;;;5109426;28;20037;-68
2022/12/18 12:51:24;;;;;;;7.38;2.70;;;;;;;;;;5109630;28;20020;-68
2022/12/18 12:53:52;;;;;;;5.75;2.90;;;;;;;;;;5109509;28;20723;-69
2022/12/18 12:56:19;;;;;;;4.85;2.88;;;;;;;;;;5109706;28;20493;-69
2022/12/18 12:58:54;;;;;;;4.63;3.08;;;;;;;;;;5109150;28;20532;-68
2022/12/18 13:01:32;;;;;;;7.82;2.70;;;;;;;;;;5109787;28;20101;-68
2022/12/18 13:04:06;;;;;;;6.68;3.20;;;;;;;;;;5109307;28;20027;-68
2022/12/18 13:06:44;;;;;;;5.53;3.05;;;;;;;;;;5109675;28;20028;-68
2022/12/18 13:09:10;;;;;;;8.32;2.90;;;;;;;;;;5109359;28;20081;-68
2022/12/18 13:14:30;;;;;;;4.50;2.85;;;;;;;;;;5109259;28;20778;-68
2022/12/18 13:17:14;;;;;;;4.53;3.00;;;;;;;;;;5109725;28;20052;-68
2022/12/18 13:19:39;;;;;;;6.18;2.78;;;;;;;;;;5109524;28;20035;-68
2022/12/18 13:22:20;;;;;;;4.97;2.92;;;;;;;;;;5109608;28;20049;-68
2022/12/18 13:24:45;;;;;;;5.03;2.92;;;;;;;;;;5109361;28;20074;-68
2022/12/18 13:27:48;;;;;;;5.70;3.25;;;;;;;;;;5109322;28;20043;-69
2022/12/18 13:30:46;;;;;;;7.05;3.15;;;;;;;;;;5109290;28;20077;-68
2022/12/18 13:33:18;;;;;;;7.22;3.20;;;;;;;;;;5102783;28;20067;-69
2022/12/18 13:35:46;;;;;;;7.65;3.22;;;;;;;;;;5111932;28;20027;-68
2022/12/18 13:38:22;;;;;;;7.63;3.30;;;;;;;;;;5113676;28;20024;-68
2022/12/18 13:40:47;;;;;;;5.88;3.35;;;;;;;;;;5113006;28;20105;-69
2022/12/18 13:43:26;;;;;;;5.75;3.10;;;;;;;;;;5112629;28;20047;-68
2022/12/18 13:46:16;;;;;;;7.07;3.33;;;;;;;;;;5112779;28;20152;-68
2022/12/18 13:48:54;;;;;;;5.77;3.20;;;;;;;;;;5113176;28;20031;-68
2022/12/18 13:51:20;;;;;;;5.68;3.40;;;;;;;;;;5113119;28;20070;-68
2022/12/18 13:54:10;;;;;;;6.03;3.20;;;;;;;;;;5112893;28;20032;-68
2022/12/18 13:56:44;;;;;;;5.10;3.20;;;;;;;;;;5112978;28;20598;-68
2022/12/18 13:59:16;;;;;;;5.60;2.97;;;;;;;;;;5112361;28;20265;-69
2022/12/18 14:01:45;;;;;;;6.00;3.15;;;;;;;;;;5112996;28;20039;-68
2022/12/18 14:04:18;;;;;;;6.63;2.95;;;;;;;;;;5112611;28;20070;-68
2022/12/18 14:06:45;;;;;;;7.28;2.75;;;;;;;;;;5112849;28;20035;-68
2022/12/18 14:09:18;;;;;;;5.43;2.85;;;;;;;;;;5112701;28;20085;-68
2022/12/18 14:11:50;;;;;;;5.50;2.83;;;;;;;;;;5112653;28;20107;-68
2022/12/18 14:14:17;;;;;;;5.53;2.92;;;;;;;;;;5112363;28;20066;-68
2022/12/18 14:16:43;;;;;;;6.00;2.75;;;;;;;;;;5113091;28;20042;-69
2022/12/18 14:19:16;;;;;;;5.53;3.00;;;;;;;;;;5112331;28;20030;-68
2022/12/18 14:21:47;;;;;;;5.07;3.00;;;;;;;;;;5112204;28;20027;-68
2022/12/18 14:24:21;;;;;;;5.78;3.22;;;;;;;;;;5112245;28;20027;-68
2022/12/18 14:26:48;;;;;;;8.57;3.53;;;;;;;;;;5112542;28;20020;-69
2022/12/18 14:29:18;;;;;;;6.25;2.97;;;;;;;;;;5111726;28;20110;-69
2022/12/18 14:31:43;;;;;;;5.83;3.27;;;;;;;;;;5112302;28;20035;-68
2022/12/18 14:34:16;;;;;;;5.00;2.70;;;;;;;;;;5112310;28;20024;-69
2022/12/18 14:36:55;;;;;;;7.90;2.88;;;;;;;;;;5111956;28;20480;-69
2022/12/18 14:39:20;;;;;;;6.15;3.20;;;;;;;;;;5112062;28;20027;-68
2022/12/18 14:41:48;;;;;;;6.13;3.20;;;;;;;;;;5111786;28;20031;-69
2022/12/18 14:44:14;;;;;;;5.35;2.90;;;;;;;;;;5111576;28;20039;-69
2022/12/18 14:46:42;;;;;;;4.80;2.90;;;;;;;;;;5111139;28;20040;-69
2022/12/18 14:49:25;;;;;;;7.72;2.90;;;;;;;;;;5112115;28;20031;-70
2022/12/18 14:52:06;;;;;;;5.40;3.10;;;;;;;;;;5111811;28;20486;-69
2022/12/18 14:54:34;;;;;;;6.00;2.90;;;;;;;;;;5111893;28;20027;-70
2022/12/18 14:57:12;;;;;;;7.07;3.05;;;;;;;;;;5112015;28;20529;-70
2022/12/18 14:59:37;;;;;;;7.75;2.88;;;;;;;;;;5111642;28;20112;-70
2022/12/18 15:02:35;;;;;;;6.57;2.97;;;;;;;;;;5111653;28;20069;-70
2022/12/18 15:05:12;;;;;;;7.05;2.92;;;;;;;;;;5055223;28;20042;-70
2022/12/18 15:07:54;;;;;;;6.00;2.92;;;;;;;;;;5093077;28;20713;-70
2022/12/18 15:10:23;;;;;;;5.85;2.72;;;;;;;;;;5111474;28;20055;-70